»·PEaware :: N721AP KJAC-KMSO

N721AP :: KJAC-KMSO

FLIGHT INFORMATION

Flight Status: Arrived
Operator: Privately registered:
United States
More flights under this callsign
Pilot: Sally S. (18014)
Aircraft: Unknown
(SF50)
More flights by this aircraft type
Origin: KJAC Jackson Hole
United States
Destination: KMSO Missoula Intl
United States
More flights between these airports :: More routes between these airports
Route: TETON3 IDA DBS CPN
File this flight plan on PilotEdge
Remarks:
Altitude:
(Current/Filed)
22,000ft
Speed:
(Current/Filed)
250kts
Departed: 25-Mar-18 12:18 PM
Arrived: 25-Mar-18 01:33 PM
Distance/Time
Traveled:
243nm/1:15
Distance/Time
To Go:
Arrived

Flight Plot

Page will automatically refresh every two minutes.

Flight plan parsing failed; only flown route is shown


Map Options




Map Legend


Flown Route
Filed Route
Departure Airport
Arrival Airport
Navaid (VOR, NDB)
Fix

Horizontal Profiles

Position Reports

Time Latitude Longitude Heading Altitude Ground
Speed
25-Mar-18 11:49 43.599701 -110.739136 108 6455ft 0kts
25-Mar-18 11:50 43.599701 -110.739136 108 6455ft 0kts
25-Mar-18 11:51 43.599701 -110.739136 108 6455ft 0kts
25-Mar-18 11:52 43.599701 -110.739136 108 6455ft 0kts
25-Mar-18 11:53 43.599701 -110.739136 108 6455ft 0kts
25-Mar-18 11:54 43.599351 -110.738801 285 6455ft 0kts
25-Mar-18 12:02 43.604971 -110.736284 7 6455ft 0kts
25-Mar-18 12:03 43.604971 -110.736284 7 6455ft 0kts
25-Mar-18 12:04 43.604971 -110.736284 7 6455ft 0kts
25-Mar-18 12:05 43.604971 -110.736284 7 6455ft 0kts
25-Mar-18 12:06 43.604971 -110.736284 7 6455ft 0kts
25-Mar-18 12:07 43.604971 -110.736284 7 6455ft 0kts
25-Mar-18 12:08 43.604971 -110.736284 7 6455ft 0kts
25-Mar-18 12:09 43.604971 -110.736284 7 6455ft 0kts
25-Mar-18 12:10 43.604971 -110.736284 7 6455ft 0kts
25-Mar-18 12:11 43.604971 -110.736284 7 6455ft 0kts
25-Mar-18 12:12 43.604971 -110.736284 7 6455ft 0kts
25-Mar-18 12:13 43.604998 -110.736287 351 6455ft 4kts
25-Mar-18 12:14 43.608983 -110.735337 18 6455ft 28kts
25-Mar-18 12:15 43.614996 -110.732678 311 6455ft 0kts
25-Mar-18 12:16 43.614996 -110.732678 311 6455ft 0kts
25-Mar-18 12:17 43.603132 -110.739830 196 6651ft 117kts
25-Mar-18 12:18 43.571447 -110.760459 206 8612ft 142kts
25-Mar-18 12:19 43.535560 -110.783959 207 10846ft 147kts
25-Mar-18 12:20 43.498293 -110.808058 207 12965ft 150kts
25-Mar-18 12:21 43.459677 -110.832998 208 14912ft 156kts
25-Mar-18 12:22 43.419343 -110.859037 208 16590ft 170kts
25-Mar-18 12:23 43.376178 -110.886864 209 18139ft 182kts
25-Mar-18 12:24 43.330053 -110.916537 208 19758ft 184kts
25-Mar-18 12:25 43.283593 -110.946402 208 21264ft 186kts
25-Mar-18 12:26 43.234960 -110.977939 214 22005ft 215kts
25-Mar-18 12:27 43.241028 -111.065933 284 21995ft 276kts
25-Mar-18 12:28 43.270239 -111.169091 285 21918ft 300kts
25-Mar-18 12:29 43.300839 -111.277428 285 21928ft 309kts
25-Mar-18 12:30 43.329960 -111.380976 285 21934ft 313kts
25-Mar-18 12:31 43.361270 -111.492788 285 21942ft 314kts
25-Mar-18 12:32 43.392526 -111.604921 285 21949ft 315kts
25-Mar-18 12:33 43.423647 -111.717073 284 21952ft 316kts
25-Mar-18 12:34 43.454806 -111.829871 284 21954ft 316kts
25-Mar-18 12:35 43.485898 -111.942952 284 21954ft 316kts
25-Mar-18 12:36 43.522236 -112.052811 315 21945ft 334kts
25-Mar-18 12:37 43.613966 -112.087818 345 21955ft 348kts
25-Mar-18 12:38 43.708043 -112.111838 345 21950ft 336kts
25-Mar-18 12:39 43.798163 -112.134806 345 21949ft 324kts
25-Mar-18 12:40 43.885896 -112.157228 345 21948ft 320kts
25-Mar-18 12:41 43.974181 -112.179866 345 21949ft 325kts
25-Mar-18 12:42 44.063557 -112.202838 345 21949ft 328kts
25-Mar-18 12:43 44.151821 -112.226221 345 21941ft 328kts
25-Mar-18 12:44 44.241381 -112.250274 345 21942ft 328kts
25-Mar-18 12:45 44.330800 -112.274361 345 21942ft 328kts
25-Mar-18 12:46 44.420473 -112.298598 345 21934ft 328kts
25-Mar-18 12:47 44.510178 -112.322919 345 21925ft 329kts
25-Mar-18 12:48 44.599659 -112.347248 345 21926ft 329kts
25-Mar-18 12:49 44.689167 -112.371673 345 21926ft 329kts
25-Mar-18 12:50 44.778983 -112.396253 344 21927ft 329kts
25-Mar-18 12:51 44.868748 -112.420898 345 21928ft 329kts
25-Mar-18 12:52 44.958407 -112.445592 345 21928ft 329kts
25-Mar-18 12:53 45.047949 -112.470316 344 21928ft 327kts
25-Mar-18 12:54 45.136014 -112.494736 344 21922ft 322kts
25-Mar-18 12:55 45.222978 -112.518909 344 21922ft 318kts
25-Mar-18 12:56 45.309467 -112.543039 344 21923ft 316kts
25-Mar-18 12:57 45.395393 -112.567070 344 21923ft 316kts
25-Mar-18 12:58 45.481482 -112.591232 344 21924ft 315kts
25-Mar-18 12:59 45.567278 -112.615382 344 21925ft 313kts
25-Mar-18 13:00 45.652652 -112.639489 344 21924ft 312kts
25-Mar-18 13:01 45.736556 -112.663257 343 21929ft 312kts
25-Mar-18 13:02 45.820397 -112.687083 343 21929ft 312kts
25-Mar-18 13:03 45.906464 -112.711634 344 21555ft 323kts
25-Mar-18 13:04 45.996583 -112.737408 344 20595ft 337kts
25-Mar-18 13:05 46.071728 -112.807546 311 19607ft 328kts
25-Mar-18 13:06 46.134319 -112.900304 311 18638ft 328kts
25-Mar-18 13:07 46.197484 -112.994957 312 17639ft 327kts
25-Mar-18 13:08 46.260415 -113.089588 312 16636ft 327kts
25-Mar-18 13:09 46.323047 -113.184130 312 15638ft 326kts
25-Mar-18 13:10 46.385618 -113.278928 312 14638ft 326kts
25-Mar-18 13:11 46.448212 -113.374092 313 13636ft 326kts
25-Mar-18 13:12 46.509664 -113.467845 313 13098ft 317kts
25-Mar-18 13:13 46.569104 -113.558841 313 12998ft 305kts
25-Mar-18 13:14 46.626961 -113.647723 313 12999ft 301kts
25-Mar-18 13:15 46.684307 -113.736109 312 13000ft 300kts
25-Mar-18 13:16 46.741395 -113.824391 312 13000ft 299kts
25-Mar-18 13:17 46.798465 -113.912935 312 13000ft 299kts
25-Mar-18 13:18 46.855373 -114.001521 312 13000ft 299kts
25-Mar-18 13:19 46.911256 -114.090900 303 12985ft 299kts
25-Mar-18 13:20 46.955692 -114.188249 303 13345ft 291kts
25-Mar-18 13:21 47.001594 -114.281801 305 13716ft 284kts
25-Mar-18 13:22 47.046941 -114.370970 303 13633ft 261kts
25-Mar-18 13:23 47.088578 -114.458703 306 11301ft 246kts
25-Mar-18 13:24 47.126085 -114.437123 115 11334ft 213kts
25-Mar-18 13:25 47.086943 -114.371508 134 10673ft 210kts
25-Mar-18 13:26 47.047194 -114.308203 133 9157ft 206kts
25-Mar-18 13:27 47.007771 -114.247206 132 6958ft 190kts
25-Mar-18 13:28 46.978982 -114.200095 131 5849ft 147kts
25-Mar-18 13:29 46.955039 -114.158792 130 4624ft 104kts
25-Mar-18 13:30 46.935532 -114.124934 130 3846ft 113kts
25-Mar-18 13:31 46.917643 -114.094554 128 3218ft 68kts
25-Mar-18 13:32 46.913120 -114.084689 43 3209ft 14kts
25-Mar-18 13:33 46.913890 -114.079087 119 3209ft 7kts

Navigation Log

Ident Type
Flight plan parsing failed, navigation log unavailable